首页
METAR-TAF:

METAR-TAF

机场 :

蓬图瓦兹, 法国

纬度: 49-05-48N, 经度: 002-02-27E, 海拔: 99米

当前天气观测

该预报发布于42分钟前的05:30 UTC
风速5节,风向西转西南
温度 12°C
湿度 94%
气压 1014 hPa
能见度10公里或以上
1500米以下无云,无积雨云

METAR: LFPT 230530Z AUTO 24005KT CAVOK 12/11 Q1014

时间: 08:12 (06:12 UTC)


TAF: 丢失

超过4000个机场的气象观测和天气预报(METAR&TAF报告)。

可查询的气象台以黄色和红色小点在地图上表示。

将鼠标移到小点上方,可查看气象台名称。

然后点击查看天气观测和预报。

如需切换地图:点击带黑十字的绿色按钮放大地图;点击带横线的绿色按钮缩小地图;或者点击绿色箭头查看邻近地区的地图。


METAR-TAF: